Time;durP1;ratioP1;P1;durP2;ratioP2;P2;SDS_P1;SDS_P2;PMS_P1;PMS_P2;Temp;Humidity;BMP_temperature;BMP_pressure;BME280_temperature;BME280_humidity;BME280_pressure;Samples;Min_cycle;Max_cycle;Signal;HPM_P1;HPM_P2
2022/06/04 00:01:23;;;;;;;14.38;8.32;;;11.20;99.90;;;;;;5062243;28;20076;-77
2022/06/04 00:03:49;;;;;;;15.30;7.60;;;11.20;99.90;;;;;;5073525;28;20059;-77
2022/06/04 00:06:14;;;;;;;18.60;8.40;;;11.20;99.90;;;;;;5050148;28;20063;-77
2022/06/04 00:08:40;;;;;;;17.98;7.90;;;11.20;99.90;;;;;;5068424;28;20144;-77
2022/06/04 00:16:35;;;;;;;18.08;7.90;;;11.30;99.90;;;;;;5061809;28;20211;-79
2022/06/04 00:19:00;;;;;;;11.63;7.10;;;11.20;99.90;;;;;;5066784;28;20156;-80
2022/06/04 00:21:26;;;;;;;12.15;7.20;;;11.20;99.90;;;;;;5069048;28;20205;-80
2022/06/04 00:23:52;;;;;;;16.05;7.78;;;11.20;99.90;;;;;;5064163;28;20101;-80
2022/06/04 00:26:19;;;;;;;14.23;7.70;;;11.20;99.90;;;;;;5060114;28;20037;-79
2022/06/04 00:28:48;;;;;;;16.42;7.80;;;11.20;99.90;;;;;;5040759;28;20039;-80
2022/06/04 00:31:17;;;;;;;21.95;8.07;;;11.20;99.90;;;;;;5069788;28;20097;-79
2022/06/04 00:33:45;;;;;;;17.92;8.18;;;11.20;99.90;;;;;;5076962;28;20089;-79
2022/06/04 00:36:11;;;;;;;13.52;7.85;;;11.20;99.90;;;;;;5048323;28;20123;-79
2022/06/04 00:38:38;;;;;;;16.48;7.30;;;11.10;99.90;;;;;;5052987;28;20050;-80
2022/06/04 00:41:06;;;;;;;16.55;7.43;;;11.20;99.90;;;;;;5065910;28;20564;-78
2022/06/04 00:43:55;;;;;;;17.50;7.68;;;11.20;99.90;;;;;;5066686;28;20523;-78
2022/06/04 00:46:35;;;;;;;18.80;8.27;;;11.20;99.90;;;;;;5050129;28;20227;-78
2022/06/04 00:49:01;;;;;;;16.77;7.60;;;11.20;99.90;;;;;;5051710;28;20043;-77
2022/06/04 00:51:27;;;;;;;13.95;7.47;;;11.20;99.90;;;;;;5047729;28;20725;-79
2022/06/04 00:53:56;;;;;;;17.83;7.10;;;11.20;99.90;;;;;;5063093;28;20048;-79
2022/06/04 00:56:28;;;;;;;16.23;7.38;;;11.20;99.90;;;;;;5060909;28;20044;-78
2022/06/04 00:58:56;;;;;;;14.93;6.95;;;11.10;99.90;;;;;;5052387;28;20139;-76
2022/06/04 01:01:30;;;;;;;15.32;7.28;;;11.10;99.90;;;;;;5048400;28;20369;-79
2022/06/04 01:04:47;;;;;;;18.58;6.90;;;11.10;99.90;;;;;;5059218;28;20048;-79
2022/06/04 01:07:02;;;;;;;;;;;11.10;99.90;;;;;;5055352;28;20240;-79
2022/06/04 01:09:31;;;;;;;19.58;6.40;;;11.00;99.90;;;;;;5058817;28;19928;-80
2022/06/04 01:12:16;;;;;;;13.13;6.68;;;11.00;99.90;;;;;;5068562;28;20048;-79
2022/06/04 01:15:14;;;;;;;15.40;6.88;;;11.00;99.90;;;;;;5051608;28;20247;-79
2022/06/04 01:17:53;;;;;;;12.85;6.57;;;10.90;99.90;;;;;;5065290;28;20041;-79
2022/06/04 01:20:55;;;;;;;19.42;6.85;;;10.90;99.90;;;;;;5052332;28;20045;-79
2022/06/04 01:23:27;;;;;;;11.48;5.93;;;10.90;99.90;;;;;;5046908;28;20186;-79
2022/06/04 01:26:13;;;;;;;14.38;6.53;;;10.90;99.90;;;;;;5042912;28;20509;-79
2022/06/04 01:28:48;;;;;;;12.65;6.22;;;10.90;99.90;;;;;;5038946;28;20051;-79
2022/06/04 01:31:22;;;;;;;14.32;6.45;;;10.90;99.90;;;;;;5057809;28;20037;-78
2022/06/04 01:33:56;;;;;;;17.00;6.75;;;10.80;99.90;;;;;;5064367;28;20087;-78
2022/06/04 01:36:34;;;;;;;15.02;6.57;;;10.80;99.90;;;;;;5075561;28;20051;-79
2022/06/04 01:39:06;;;;;;;19.15;7.05;;;10.80;99.90;;;;;;5057303;28;20036;-78
2022/06/04 01:41:43;;;;;;;16.10;6.30;;;10.80;99.90;;;;;;5058779;28;20401;-78
2022/06/04 01:44:23;;;;;;;13.57;6.60;;;10.80;99.90;;;;;;5050596;28;20049;-78
2022/06/04 01:46:53;;;;;;;13.25;6.07;;;10.70;99.90;;;;;;5062349;28;20142;-78
2022/06/04 01:49:41;;;;;;;16.55;6.80;;;10.70;99.90;;;;;;5051896;28;20037;-79
2022/06/04 01:52:14;;;;;;;19.52;7.22;;;10.70;99.90;;;;;;5069001;28;20039;-77
2022/06/04 01:54:50;;;;;;;16.33;6.20;;;10.70;99.90;;;;;;5067655;28;20396;-78
2022/06/04 01:57:56;;;;;;;13.90;6.88;;;10.70;99.90;;;;;;5046797;28;20053;-77
2022/06/04 02:00:36;;;;;;;16.17;6.68;;;10.70;99.90;;;;;;5052469;28;20395;-77
2022/06/04 02:03:23;;;;;;;18.35;6.40;;;10.60;99.90;;;;;;5042750;28;20032;-77
2022/06/04 02:05:53;;;;;;;17.98;6.50;;;10.60;99.90;;;;;;5041431;28;20509;-78
2022/06/04 02:09:15;;;;;;;15.50;5.93;;;10.60;99.90;;;;;;5062451;28;20032;-79
2022/06/04 02:11:48;;;;;;;13.45;5.93;;;10.60;99.90;;;;;;4983723;28;20049;-78
2022/06/04 02:14:14;;;;;;;14.48;6.68;;;10.60;99.90;;;;;;5040171;28;20045;-77
2022/06/04 02:16:56;;;;;;;16.73;6.88;;;10.50;99.90;;;;;;5055300;28;20051;-78
2022/06/04 02:19:22;;;;;;;12.30;6.13;;;10.50;99.90;;;;;;5044719;28;20400;-78
2022/06/04 02:21:48;;;;;;;13.48;6.07;;;10.50;99.90;;;;;;5043651;28;20055;-78
2022/06/04 02:24:14;;;;;;;12.63;6.20;;;10.50;99.90;;;;;;5051197;28;20385;-77
2022/06/04 02:26:41;;;;;;;12.35;6.03;;;10.40;99.90;;;;;;5070575;28;20044;-78
2022/06/04 02:29:07;;;;;;;13.52;6.30;;;10.40;99.90;;;;;;5067560;28;20615;-77
2022/06/04 02:31:53;;;;;;;18.33;7.57;;;10.40;99.90;;;;;;5061900;28;20625;-77
2022/06/04 02:34:23;;;;;;;17.17;6.97;;;10.40;99.90;;;;;;5051775;28;20047;-77
2022/06/04 02:37:06;;;;;;;14.13;6.50;;;10.40;99.90;;;;;;5042553;28;20041;-79
2022/06/04 02:39:55;;;;;;;12.73;6.35;;;10.30;99.90;;;;;;5043152;28;20044;-78
2022/06/04 02:42:48;;;;;;;13.35;6.85;;;10.40;99.90;;;;;;5069102;28;20097;-77
2022/06/04 02:45:24;;;;;;;13.10;6.60;;;10.30;99.90;;;;;;5062744;28;20037;-78
2022/06/04 02:47:56;;;;;;;12.13;6.75;;;10.30;99.90;;;;;;5037007;28;20078;-77
2022/06/04 02:50:32;;;;;;;13.25;6.40;;;10.20;99.90;;;;;;5056740;28;20049;-78
2022/06/04 02:53:00;;;;;;;13.15;6.97;;;10.30;99.90;;;;;;5040336;28;20504;-78
2022/06/04 02:55:34;;;;;;;15.65;7.28;;;10.20;99.90;;;;;;5059394;28;20059;-78
2022/06/04 02:58:07;;;;;;;17.05;7.53;;;10.20;99.90;;;;;;5049832;28;20059;-78
2022/06/04 03:00:34;;;;;;;12.18;7.00;;;10.20;99.90;;;;;;5063828;28;20044;-78
2022/06/04 03:03:00;;;;;;;11.23;6.28;;;10.10;99.90;;;;;;5054979;28;20049;-78
2022/06/04 03:05:28;;;;;;;11.07;6.68;;;10.10;99.90;;;;;;5041054;28;20182;-78
2022/06/04 03:07:59;;;;;;;17.40;7.38;;;10.10;99.90;;;;;;5046603;28;20067;-78
2022/06/04 03:10:31;;;;;;;14.18;6.80;;;10.10;99.90;;;;;;5048977;28;20094;-77
2022/06/04 03:12:57;;;;;;;12.25;7.28;;;10.00;99.90;;;;;;5043498;28;20516;-77
2022/06/04 03:15:23;;;;;;;14.25;6.78;;;10.00;99.90;;;;;;5066618;28;20099;-78
2022/06/04 03:17:50;;;;;;;15.25;7.40;;;10.00;99.90;;;;;;5047981;28;20075;-78
2022/06/04 03:20:26;;;;;;;11.35;6.93;;;10.00;99.90;;;;;;5047319;28;20045;-78
2022/06/04 03:22:52;;;;;;;13.23;6.65;;;10.00;99.90;;;;;;5042957;28;20488;-77
2022/06/04 03:25:19;;;;;;;13.00;7.32;;;10.00;99.90;;;;;;5041500;28;20067;-78
2022/06/04 03:27:45;;;;;;;16.80;7.05;;;10.00;99.90;;;;;;5047129;28;20049;-77
2022/06/04 03:30:12;;;;;;;12.95;7.05;;;10.00;99.90;;;;;;5043460;28;20041;-76
2022/06/04 03:32:38;;;;;;;13.60;7.15;;;10.00;99.90;;;;;;5061995;28;20067;-76
2022/06/04 03:35:04;;;;;;;12.77;6.45;;;10.00;99.90;;;;;;5064166;28;20071;-76
2022/06/04 03:37:30;;;;;;;13.05;7.13;;;10.00;99.90;;;;;;5056719;28;20407;-77
2022/06/04 03:39:56;;;;;;;17.55;7.07;;;10.00;99.90;;;;;;5061860;28;20037;-77
2022/06/04 03:42:22;;;;;;;16.40;7.57;;;10.00;99.90;;;;;;5051435;28;20051;-77
2022/06/04 03:44:47;;;;;;;14.68;6.88;;;10.00;99.90;;;;;;5070882;28;20048;-79
2022/06/04 03:47:17;;;;;;;12.73;7.10;;;10.00;99.90;;;;;;5050995;28;20036;-78
2022/06/04 03:49:46;;;;;;;12.95;6.78;;;10.00;99.90;;;;;;5070919;28;20055;-77
2022/06/04 03:52:13;;;;;;;11.20;6.82;;;10.00;99.90;;;;;;5066520;28;20116;-77
2022/06/04 03:54:52;;;;;;;12.13;6.63;;;10.00;99.90;;;;;;5043252;28;20044;-77
2022/06/04 04:00:19;;;;;;;10.80;6.05;;;10.10;99.90;;;;;;5066345;28;20032;-77
2022/06/04 04:02:55;;;;;;;12.80;6.55;;;10.30;99.90;;;;;;5045799;28;20036;-80
2022/06/04 04:05:26;;;;;;;14.85;7.03;;;10.40;99.90;;;;;;5061691;28;20147;-78
2022/06/04 04:07:54;;;;;;;10.80;6.68;;;10.50;99.90;;;;;;5044044;28;20102;-78
2022/06/04 04:10:20;;;;;;;8.98;6.22;;;10.80;99.90;;;;;;5050311;28;20044;-77
2022/06/04 04:12:46;;;;;;;12.73;6.00;;;11.10;99.90;;;;;;5053641;28;20061;-79
2022/06/04 04:15:16;;;;;;;10.88;6.00;;;11.40;99.90;;;;;;5047341;28;20136;-80
2022/06/04 04:17:46;;;;;;;9.10;5.82;;;11.80;99.90;;;;;;5071163;28;20047;-79
2022/06/04 04:20:21;;;;;;;10.93;6.10;;;12.30;99.90;;;;;;5050337;28;20504;-78
2022/06/04 04:22:48;;;;;;;11.45;5.78;;;12.70;99.90;;;;;;5046282;28;20045;-79
2022/06/04 04:25:19;;;;;;;14.18;6.07;;;13.00;99.90;;;;;;5054076;28;20041;-78
2022/06/04 04:27:46;;;;;;;12.95;5.95;;;12.60;99.90;;;;;;5075430;28;20045;-77
2022/06/04 04:30:18;;;;;;;9.93;5.40;;;12.20;99.90;;;;;;5062959;28;20052;-77
2022/06/04 04:32:44;;;;;;;6.95;5.60;;;11.90;99.90;;;;;;5049093;28;20040;-74
2022/06/04 04:35:15;;;;;;;14.98;5.55;;;11.70;99.90;;;;;;5071465;28;20043;-78
2022/06/04 04:37:42;;;;;;;13.40;6.07;;;11.60;99.90;;;;;;5047344;28;20103;-79
2022/06/04 04:40:09;;;;;;;9.70;6.07;;;11.60;99.90;;;;;;5067459;28;20505;-77
2022/06/04 04:42:35;;;;;;;9.68;5.93;;;11.60;99.90;;;;;;5054230;28;20485;-78
2022/06/04 04:45:00;;;;;;;11.45;5.63;;;11.50;99.90;;;;;;5066922;28;20491;-77
2022/06/04 04:47:26;;;;;;;12.90;6.45;;;11.50;99.90;;;;;;5051050;28;20036;-79
2022/06/04 04:49:52;;;;;;;11.60;6.00;;;11.60;99.90;;;;;;5072275;28;20040;-78
2022/06/04 04:52:18;;;;;;;9.23;6.25;;;11.70;99.90;;;;;;5067464;28;20044;-78
2022/06/04 04:54:44;;;;;;;9.93;5.63;;;11.70;99.90;;;;;;5069581;28;20059;-78
2022/06/04 04:57:09;;;;;;;10.00;5.82;;;11.80;99.90;;;;;;5061196;28;20798;-78
2022/06/04 04:59:35;;;;;;;12.82;5.97;;;11.80;99.90;;;;;;5075057;28;20047;-78
2022/06/04 05:02:01;;;;;;;9.70;5.45;;;11.90;99.90;;;;;;5068251;28;20036;-78
2022/06/04 05:04:26;;;;;;;7.95;4.88;;;12.10;99.90;;;;;;5069398;28;20493;-78
2022/06/04 05:06:52;;;;;;;7.93;5.15;;;12.20;99.90;;;;;;5048918;28;20104;-79
2022/06/04 05:09:18;;;;;;;10.27;4.80;;;12.30;99.90;;;;;;5071637;28;20036;-78
2022/06/04 05:11:44;;;;;;;9.25;4.55;;;12.40;99.90;;;;;;5072277;28;20616;-78
2022/06/04 05:14:09;;;;;;;7.90;4.47;;;12.60;99.90;;;;;;5068969;28;20036;-78
2022/06/04 05:16:38;;;;;;;8.43;4.35;;;12.70;99.90;;;;;;5059395;28;20052;-79
2022/06/04 05:19:05;;;;;;;7.35;4.03;;;12.70;99.90;;;;;;5057360;28;20043;-78
2022/06/04 05:21:50;;;;;;;8.57;4.47;;;12.80;99.90;;;;;;5051816;28;20131;-79
2022/06/04 05:24:20;;;;;;;7.10;3.83;;;12.90;99.90;;;;;;5048081;28;20036;-79
2022/06/04 05:26:47;;;;;;;8.88;4.32;;;13.00;99.90;;;;;;5043646;28;20489;-78
2022/06/04 05:29:16;;;;;;;7.75;3.75;;;13.10;99.90;;;;;;5067266;28;20033;-78
2022/06/04 05:31:43;;;;;;;7.65;4.00;;;13.20;99.90;;;;;;5060844;28;20051;-78
2022/06/04 05:34:09;;;;;;;9.43;4.43;;;13.30;99.90;;;;;;5044248;28;20044;-78
2022/06/04 05:36:36;;;;;;;6.97;3.75;;;13.40;99.90;;;;;;5047156;28;20597;-78
2022/06/04 05:39:04;;;;;;;6.05;3.63;;;13.50;99.90;;;;;;5048111;28;20044;-78
2022/06/04 05:41:30;;;;;;;6.10;4.07;;;13.50;99.90;;;;;;5048500;28;20491;-80
2022/06/04 05:43:55;;;;;;;6.47;3.80;;;13.50;99.90;;;;;;5052734;28;20059;-81
2022/06/04 05:46:22;;;;;;;6.30;3.88;;;13.50;99.90;;;;;;5035357;28;20240;-80
2022/06/04 05:48:49;;;;;;;11.15;4.20;;;13.50;99.90;;;;;;5036085;28;20512;-79
2022/06/04 05:51:18;;;;;;;7.85;3.47;;;13.60;99.90;;;;;;5076159;28;20112;-81
2022/06/04 05:53:44;;;;;;;7.10;3.88;;;13.60;99.90;;;;;;5071292;28;20064;-80
2022/06/04 05:56:19;;;;;;;6.40;3.70;;;13.60;99.90;;;;;;5061453;28;20104;-81
2022/06/04 05:58:46;;;;;;;6.25;3.85;;;13.60;99.90;;;;;;5056544;28;20287;-80
2022/06/04 06:01:13;;;;;;;9.50;4.50;;;13.60;99.90;;;;;;5061166;28;20040;-79
2022/06/04 06:03:40;;;;;;;6.15;3.55;;;13.50;99.90;;;;;;5060214;28;20032;-79
2022/06/04 06:06:17;;;;;;;7.72;3.70;;;13.50;99.90;;;;;;5064794;28;20056;-80
2022/06/04 06:08:44;;;;;;;7.45;3.90;;;13.40;99.90;;;;;;5035541;28;20132;-80
2022/06/04 06:11:12;;;;;;;6.10;3.58;;;13.40;99.90;;;;;;5052819;28;20048;-79
2022/06/04 06:13:40;;;;;;;8.05;3.90;;;13.40;99.90;;;;;;5046300;28;20221;-80
2022/06/04 06:16:08;;;;;;;7.85;4.30;;;13.30;99.90;;;;;;5049675;28;20648;-81
2022/06/04 06:18:35;;;;;;;7.40;3.78;;;13.30;99.90;;;;;;5064465;28;20073;-80
2022/06/04 06:21:06;;;;;;;9.27;4.35;;;13.40;99.90;;;;;;5049221;28;20608;-76
2022/06/04 06:23:32;;;;;;;8.77;4.22;;;13.60;99.90;;;;;;5047526;28;20040;-80
2022/06/04 06:25:58;;;;;;;6.60;4.15;;;13.90;99.90;;;;;;5048108;28;20513;-80
2022/06/04 06:28:23;;;;;;;7.88;4.05;;;14.20;99.90;;;;;;5052687;28;20060;-80
2022/06/04 06:30:51;;;;;;;5.15;3.75;;;14.50;99.90;;;;;;5046653;28;20552;-80
2022/06/04 06:33:17;;;;;;;8.68;4.40;;;14.90;99.90;;;;;;5042896;28;20065;-80
2022/06/04 06:35:53;;;;;;;5.55;3.80;;;15.20;99.90;;;;;;5069478;28;20036;-80
2022/06/04 06:38:19;;;;;;;8.05;3.88;;;15.50;99.90;;;;;;5054392;28;20334;-80
2022/06/04 06:40:44;;;;;;;6.80;3.05;;;15.60;99.90;;;;;;5067081;28;20045;-78
2022/06/04 06:43:10;;;;;;;7.15;4.03;;;15.80;99.90;;;;;;5070055;28;20045;-79
2022/06/04 06:45:37;;;;;;;7.85;3.78;;;15.90;99.90;;;;;;5067944;28;20395;-79
2022/06/04 06:48:03;;;;;;;8.73;4.25;;;16.00;99.90;;;;;;5067737;28;20055;-80
2022/06/04 06:50:29;;;;;;;7.95;4.25;;;16.00;99.90;;;;;;5061311;28;20036;-79
2022/06/04 06:52:54;;;;;;;5.85;3.35;;;16.00;99.90;;;;;;5072458;28;20127;-80
2022/06/04 06:55:20;;;;;;;7.82;4.18;;;15.80;99.90;;;;;;5049271;28;20637;-80
2022/06/04 06:57:46;;;;;;;8.20;3.90;;;15.70;99.90;;;;;;5061016;28;20049;-79
2022/06/04 07:00:21;;;;;;;7.20;3.58;;;15.50;99.90;;;;;;5059321;28;20049;-79
2022/06/04 07:02:46;;;;;;;7.10;3.65;;;15.40;99.90;;;;;;5046824;28;20067;-80
2022/06/04 07:05:13;;;;;;;9.07;3.38;;;15.30;99.90;;;;;;5060737;28;20053;-79
2022/06/04 07:07:40;;;;;;;7.85;3.88;;;15.30;99.90;;;;;;5056448;28;20571;-80
2022/06/04 07:10:14;;;;;;;7.05;3.90;;;15.30;99.90;;;;;;5062341;28;20067;-80
2022/06/04 07:12:46;;;;;;;8.02;3.30;;;15.30;99.90;;;;;;5064803;28;20044;-80
2022/06/04 07:15:12;;;;;;;8.35;3.47;;;15.30;99.90;;;;;;5056932;28;20048;-79
2022/06/04 07:17:38;;;;;;;6.35;3.13;;;15.30;99.90;;;;;;5062469;28;20329;-80
2022/06/04 07:20:04;;;;;;;7.60;3.30;;;15.40;99.90;;;;;;5053762;28;20108;-79
2022/06/04 07:22:30;;;;;;;6.95;3.17;;;15.50;99.90;;;;;;5055260;28;20068;-78
2022/06/04 07:24:57;;;;;;;8.93;3.95;;;15.50;99.90;;;;;;5046375;28;20095;-81
2022/06/04 07:27:23;;;;;;;5.00;3.75;;;15.50;99.90;;;;;;5053073;28;20036;-80
2022/06/04 07:29:49;;;;;;;9.05;3.70;;;15.60;99.90;;;;;;5052206;28;20058;-79
2022/06/04 07:32:15;;;;;;;8.85;3.95;;;15.70;99.90;;;;;;5056098;28;20127;-81
2022/06/04 07:34:41;;;;;;;7.53;4.03;;;15.90;99.90;;;;;;5070066;28;20173;-77
2022/06/04 07:37:07;;;;;;;8.52;3.67;;;16.00;99.90;;;;;;5046433;28;20080;-79
2022/06/04 07:39:33;;;;;;;6.68;3.42;;;15.90;99.90;;;;;;5043361;28;20908;-81
2022/06/04 07:41:59;;;;;;;7.00;3.45;;;15.90;99.90;;;;;;5051454;28;20036;-81
2022/06/04 07:44:26;;;;;;;9.13;3.65;;;16.00;99.90;;;;;;5051976;28;20037;-82
2022/06/04 07:46:53;;;;;;;6.43;4.00;;;16.20;99.90;;;;;;5038962;28;20048;-84
2022/06/04 07:49:20;;;;;;;5.95;3.05;;;16.30;99.90;;;;;;5063763;28;20047;-83
2022/06/04 07:51:46;;;;;;;7.65;4.03;;;16.40;99.90;;;;;;5048722;28;20053;-77
2022/06/04 07:54:14;;;;;;;9.90;3.78;;;16.50;99.90;;;;;;5065018;28;20043;-87
2022/06/04 07:56:40;;;;;;;5.57;3.63;;;16.60;99.90;;;;;;5056811;28;20051;-84
2022/06/04 07:59:08;;;;;;;7.57;4.15;;;16.80;99.90;;;;;;5045306;28;20040;-83
2022/06/04 08:01:34;;;;;;;9.02;4.05;;;16.80;99.90;;;;;;5057602;28;20041;-82
2022/06/04 08:04:00;;;;;;;7.75;3.45;;;16.90;99.90;;;;;;5056652;28;20314;-82
2022/06/04 08:06:26;;;;;;;9.02;3.50;;;17.10;99.90;;;;;;5040544;28;20049;-82
2022/06/04 08:08:57;;;;;;;8.50;4.05;;;17.20;99.90;;;;;;5039598;28;20048;-73
2022/06/04 08:11:34;;;;;;;6.28;3.45;;;17.20;99.90;;;;;;5033926;28;20373;-73
2022/06/04 08:14:08;;;;;;;8.55;3.38;;;17.20;99.90;;;;;;5042219;28;20059;-74
2022/06/04 08:16:36;;;;;;;6.28;3.40;;;17.00;99.90;;;;;;5035489;28;20037;-73
2022/06/04 08:19:03;;;;;;;4.63;3.20;;;17.00;99.90;;;;;;5062470;28;20047;-73
2022/06/04 08:21:30;;;;;;;7.13;3.20;;;16.90;99.90;;;;;;5038241;28;20060;-73
2022/06/04 08:23:56;;;;;;;6.70;2.90;;;16.70;99.90;;;;;;5040198;28;20039;-73
2022/06/04 08:26:21;;;;;;;6.80;3.33;;;16.50;99.90;;;;;;5039028;28;20041;-73
2022/06/04 08:28:47;;;;;;;6.30;3.67;;;16.30;99.90;;;;;;5053346;28;20041;-74
2022/06/04 08:31:15;;;;;;;5.93;3.65;;;16.10;99.90;;;;;;5063420;28;20043;-74
2022/06/04 08:33:41;;;;;;;5.45;3.70;;;16.10;99.90;;;;;;5074718;28;20058;-72
2022/06/04 08:36:09;;;;;;;6.93;3.40;;;16.10;99.90;;;;;;5042193;28;20040;-71
2022/06/04 08:38:38;;;;;;;8.63;3.63;;;16.10;99.90;;;;;;5061676;28;20169;-71
2022/06/04 08:41:07;;;;;;;8.10;4.30;;;16.20;99.90;;;;;;5052704;28;20044;-72
2022/06/04 08:43:49;;;;;;;6.90;3.92;;;16.20;99.90;;;;;;5063483;28;20052;-72
2022/06/04 08:46:27;;;;;;;9.63;3.53;;;16.40;99.90;;;;;;5061699;28;20037;-73
2022/06/04 08:48:56;;;;;;;7.93;3.20;;;16.50;99.90;;;;;;5034982;28;20408;-77
2022/06/04 08:51:28;;;;;;;7.10;3.60;;;16.60;99.90;;;;;;5063236;28;20048;-74
2022/06/04 08:53:57;;;;;;;6.97;3.40;;;16.70;99.90;;;;;;5065423;28;20499;-71
2022/06/04 08:59:54;;;;;;;6.43;3.30;;;16.70;99.90;;;;;;5064289;28;20119;-74
2022/06/04 09:02:26;;;;;;;4.60;3.17;;;17.00;99.90;;;;;;5029329;28;20101;-76
2022/06/04 09:05:04;;;;;;;8.53;3.43;;;16.90;99.90;;;;;;5043914;28;20041;-72
2022/06/04 09:07:37;;;;;;;8.20;3.33;;;16.90;99.90;;;;;;5045349;28;20116;-73
2022/06/04 09:10:12;;;;;;;6.55;3.50;;;17.10;99.90;;;;;;5048949;28;20067;-71
2022/06/04 09:12:49;;;;;;;7.13;3.40;;;17.30;99.90;;;;;;5046434;28;20068;-71
2022/06/04 09:15:29;;;;;;;5.82;3.42;;;17.50;99.90;;;;;;5038696;28;20423;-72
2022/06/04 09:18:01;;;;;;;6.55;3.35;;;17.70;99.90;;;;;;5061990;28;20045;-72
2022/06/04 09:20:34;;;;;;;7.43;3.35;;;17.80;99.90;;;;;;5064577;28;20139;-72
2022/06/04 09:23:37;;;;;;;6.80;3.53;;;18.00;99.90;;;;;;5048666;28;20454;-72
2022/06/04 09:26:25;;;;;;;9.13;3.85;;;18.10;99.90;;;;;;5062100;28;20045;-73
2022/06/04 09:29:21;;;;;;;5.80;3.15;;;18.20;99.90;;;;;;5060130;28;20059;-71
2022/06/04 09:31:52;;;;;;;8.07;3.72;;;18.40;99.90;;;;;;5055923;28;20146;-73
2022/06/04 09:34:24;;;;;;;4.57;2.83;;;18.50;99.90;;;;;;5055055;28;20054;-71
2022/06/04 09:36:50;;;;;;;5.90;2.80;;;18.50;99.90;;;;;;5057723;28;20052;-73
2022/06/04 09:39:31;;;;;;;6.28;3.10;;;18.50;99.90;;;;;;5051672;28;20084;-72
2022/06/04 09:42:02;;;;;;;8.23;3.72;;;18.60;99.90;;;;;;5045325;28;20049;-72
2022/06/04 09:44:30;;;;;;;7.00;3.53;;;18.60;99.90;;;;;;5062944;28;20059;-71
2022/06/04 09:47:05;;;;;;;6.57;3.67;;;18.60;99.90;;;;;;5069762;28;20410;-72
2022/06/04 09:49:43;;;;;;;7.75;3.35;;;18.60;99.90;;;;;;5063079;28;20045;-72
2022/06/04 09:52:18;;;;;;;6.55;3.40;;;18.70;99.90;;;;;;5044042;28;20096;-72
2022/06/04 09:54:52;;;;;;;6.15;3.58;;;18.80;99.90;;;;;;5053391;28;20036;-73
2022/06/04 09:57:31;;;;;;;8.32;3.53;;;18.80;99.90;;;;;;5045105;28;20048;-72
2022/06/04 09:59:58;;;;;;;7.20;3.28;;;18.70;99.90;;;;;;5038875;28;20044;-72
2022/06/04 10:02:24;;;;;;;7.30;3.38;;;18.50;99.90;;;;;;5058008;28;20056;-72
2022/06/04 10:05:02;;;;;;;8.63;3.55;;;18.50;99.90;;;;;;5063413;28;20050;-73
2022/06/04 10:07:36;;;;;;;6.72;3.83;;;18.50;99.90;;;;;;5057556;28;20127;-72
2022/06/04 10:10:17;;;;;;;5.45;2.90;;;18.50;99.90;;;;;;5038087;28;20053;-71
2022/06/04 10:15:32;;;;;;;7.15;3.40;;;18.80;99.90;;;;;;5041579;28;20491;-72
2022/06/04 10:18:18;;;;;;;5.53;2.78;;;18.90;99.90;;;;;;5049142;28;20046;-73
2022/06/04 10:21:07;;;;;;;4.72;3.00;;;19.10;99.90;;;;;;5059942;28;20045;-73
2022/06/04 10:23:47;;;;;;;5.32;3.05;;;19.00;99.90;;;;;;5037703;28;20769;-73
2022/06/04 10:26:41;;;;;;;5.00;3.00;;;19.00;99.90;;;;;;5048150;28;20503;-73
2022/06/04 10:29:35;;;;;;;4.22;2.40;;;18.90;99.90;;;;;;5047543;28;20071;-73
2022/06/04 10:32:23;;;;;;;5.90;2.90;;;19.00;99.90;;;;;;5065247;28;20059;-72
2022/06/04 10:35:07;;;;;;;3.90;3.08;;;18.90;99.90;;;;;;5046815;28;20607;-72
2022/06/04 10:37:59;;;;;;;5.38;3.47;;;19.00;99.90;;;;;;5060346;28;20541;-69
2022/06/04 10:40:46;;;;;;;6.30;3.78;;;19.10;99.90;;;;;;5064840;28;20051;-68
2022/06/04 10:43:36;;;;;;;6.38;3.38;;;19.30;99.90;;;;;;5067673;28;20527;-72
2022/06/04 10:46:30;;;;;;;6.25;2.72;;;19.30;99.90;;;;;;5063308;28;20045;-73
2022/06/04 10:49:35;;;;;;;7.15;3.88;;;19.10;99.90;;;;;;5062683;28;20812;-74
2022/06/04 10:52:27;;;;;;;8.05;3.60;;;19.00;99.90;;;;;;5059920;28;20049;-72
2022/06/04 10:55:13;;;;;;;5.90;3.30;;;19.00;99.90;;;;;;5042693;28;20045;-72
2022/06/04 10:58:14;;;;;;;6.25;3.20;;;19.10;99.90;;;;;;5045339;28;20041;-73
2022/06/04 11:00:47;;;;;;;7.93;3.25;;;19.10;99.90;;;;;;5026732;28;20046;-72
2022/06/04 11:03:23;;;;;;;6.10;3.05;;;19.20;99.90;;;;;;5062460;28;20504;-73
2022/06/04 11:06:16;;;;;;;5.95;2.72;;;19.20;99.90;;;;;;5045049;28;20052;-72
2022/06/04 11:09:06;;;;;;;8.27;3.72;;;19.10;99.90;;;;;;5034397;28;20120;-75
2022/06/04 11:11:41;;;;;;;5.63;3.08;;;19.10;99.90;;;;;;5065991;28;20049;-75
2022/06/04 11:14:16;;;;;;;9.63;2.92;;;19.10;99.90;;;;;;5063566;28;20617;-72
2022/06/04 11:17:00;;;;;;;6.28;3.35;;;19.00;99.90;;;;;;5045643;28;20075;-74
2022/06/04 11:19:38;;;;;;;5.00;2.90;;;19.00;99.90;;;;;;5065393;28;20052;-72
2022/06/04 11:22:28;;;;;;;6.13;3.35;;;19.00;99.90;;;;;;5065823;28;20033;-73
2022/06/04 11:25:01;;;;;;;6.82;2.72;;;19.00;99.90;;;;;;5056340;28;20106;-74
2022/06/04 11:27:47;;;;;;;7.40;3.00;;;19.00;99.90;;;;;;5042714;28;20041;-74
2022/06/04 11:30:16;;;;;;;6.70;2.70;;;19.10;99.90;;;;;;5044935;28;20044;-73
2022/06/04 11:33:03;;;;;;;8.70;3.42;;;19.20;99.90;;;;;;5067495;28;20431;-73
2022/06/04 11:35:32;;;;;;;4.10;2.80;;;19.10;99.90;;;;;;5039277;28;20459;-74
2022/06/04 11:38:13;;;;;;;7.35;3.28;;;18.90;99.90;;;;;;5061037;28;20053;-75
2022/06/04 11:41:18;;;;;;;6.50;3.05;;;18.80;99.90;;;;;;5043599;28;20051;-74
2022/06/04 11:44:14;;;;;;;5.57;2.97;;;18.80;99.90;;;;;;5057105;28;20045;-74
2022/06/04 11:46:58;;;;;;;7.80;3.00;;;18.80;99.90;;;;;;5030856;28;20052;-73
2022/06/04 11:49:35;;;;;;;6.57;3.15;;;19.00;99.90;;;;;;5040573;28;20687;-74
2022/06/04 11:52:16;;;;;;;4.93;2.72;;;19.30;99.90;;;;;;5054751;28;20114;-74
2022/06/04 11:55:14;;;;;;;4.43;2.67;;;19.40;99.90;;;;;;5053755;28;20730;-73
2022/06/04 11:58:08;;;;;;;7.88;2.85;;;19.50;99.90;;;;;;5039055;28;20048;-74
2022/06/04 12:00:37;;;;;;;8.93;3.30;;;19.50;99.90;;;;;;5057032;28;20566;-73
2022/06/04 12:03:15;;;;;;;9.45;3.63;;;19.40;99.90;;;;;;5056296;28;20415;-73
2022/06/04 12:05:47;;;;;;;9.05;3.63;;;19.30;99.90;;;;;;5050492;28;20203;-75
2022/06/04 12:08:17;;;;;;;9.35;3.65;;;19.30;99.90;;;;;;5047933;28;20097;-71
2022/06/04 12:10:57;;;;;;;7.60;3.72;;;19.30;99.90;;;;;;5063342;28;20041;-72
2022/06/04 12:14:02;;;;;;;10.75;3.63;;;19.30;99.90;;;;;;5048227;28;20075;-73
2022/06/04 12:16:31;;;;;;;8.25;4.13;;;19.00;99.90;;;;;;5049455;28;20051;-74
2022/06/04 12:24:15;;;;;;;12.30;3.88;;;18.80;99.90;;;;;;5062442;28;20048;-74
2022/06/04 12:24:44;;;;;;;10.95;3.80;;;18.70;99.90;;;;;;5065720;28;20408;-73
2022/06/04 12:27:21;;;;;;;11.98;3.67;;;18.60;99.90;;;;;;5064114;28;20446;-75
2022/06/04 12:29:50;;;;;;;10.77;3.50;;;18.50;99.90;;;;;;5049979;28;20658;-74
2022/06/04 12:32:21;;;;;;;12.00;4.15;;;18.60;99.90;;;;;;5046686;28;20037;-74
2022/06/04 12:34:50;;;;;;;11.48;3.97;;;18.70;99.90;;;;;;5042905;28;20186;-73
2022/06/04 12:37:27;;;;;;;6.82;3.42;;;18.60;99.90;;;;;;5063400;28;20044;-75
2022/06/04 12:39:53;;;;;;;10.10;4.18;;;18.60;99.90;;;;;;5060971;28;20029;-73
2022/06/04 12:42:23;;;;;;;11.70;3.72;;;18.60;99.90;;;;;;5041058;28;20052;-70
2022/06/04 12:44:58;;;;;;;8.63;3.80;;;18.70;99.90;;;;;;5059608;28;20033;-72
2022/06/04 12:47:29;;;;;;;12.50;4.45;;;18.60;99.90;;;;;;5076893;28;20525;-69
2022/06/04 12:50:04;;;;;;;13.23;4.55;;;18.60;99.90;;;;;;5065499;28;20040;-74
2022/06/04 12:52:51;;;;;;;7.18;3.72;;;18.60;99.90;;;;;;5065042;28;20052;-72
2022/06/04 12:55:24;;;;;;;10.57;4.03;;;18.60;99.90;;;;;;5061104;28;20116;-74
2022/06/04 12:58:01;;;;;;;;;;;18.50;99.90;;;;;;5062507;28;20056;-74
2022/06/04 13:00:40;;;;;;;8.65;4.60;;;18.50;99.90;;;;;;5045259;28;19986;-73
2022/06/04 13:03:09;;;;;;;9.88;4.25;;;18.50;99.90;;;;;;5063192;28;20045;-74
2022/06/04 13:05:54;;;;;;;9.25;4.38;;;18.60;99.90;;;;;;5046955;28;20045;-78
2022/06/04 13:08:20;;;;;;;9.07;4.45;;;18.60;99.90;;;;;;5052064;28;20064;-72
2022/06/04 13:11:16;;;;;;;9.00;4.00;;;18.50;99.90;;;;;;5060292;28;20071;-71
2022/06/04 13:14:09;;;;;;;10.73;4.43;;;18.40;99.90;;;;;;5024347;28;20695;-71
2022/06/04 13:16:48;;;;;;;7.18;3.72;;;18.40;99.90;;;;;;5037035;28;20032;-73
2022/06/04 13:19:37;;;;;;;5.40;3.33;;;18.40;99.90;;;;;;5046449;28;20060;-74
2022/06/04 13:22:10;;;;;;;9.85;4.00;;;18.30;99.90;;;;;;5047742;28;20083;-74
2022/06/04 13:24:38;;;;;;;7.18;3.95;;;18.30;99.90;;;;;;5044300;28;20040;-73
2022/06/04 13:27:08;;;;;;;6.90;3.85;;;18.30;99.90;;;;;;5044762;28;20059;-73
2022/06/04 13:29:36;;;;;;;7.30;4.15;;;18.40;99.90;;;;;;5044797;28;20136;-72
2022/06/04 13:32:09;;;;;;;8.10;4.32;;;18.40;99.90;;;;;;5048887;28;20761;-73